createdAt,value
2023-03-25T00:01:33.259Z,18.00
2023-03-25T00:04:04.355Z,17.30
2023-03-25T00:06:35.503Z,16.50
2023-03-25T00:09:07.450Z,18.00
2023-03-25T00:11:37.773Z,17.50
2023-03-25T00:14:06.555Z,17.10
2023-03-25T00:16:48.685Z,17.90
2023-03-25T00:19:16.891Z,18.90
2023-03-25T00:21:44.959Z,20.10
2023-03-25T00:24:17.940Z,18.90
2023-03-25T00:26:49.222Z,18.10
2023-03-25T00:29:18.288Z,19.50
2023-03-25T00:31:47.567Z,18.80
2023-03-25T00:34:16.987Z,20.00
2023-03-25T00:36:48.934Z,20.00
2023-03-25T00:39:17.185Z,18.90
2023-03-25T00:41:45.305Z,19.90
2023-03-25T00:44:14.361Z,20.70
2023-03-25T00:46:43.048Z,18.20
2023-03-25T00:49:13.917Z,19.60
2023-03-25T00:51:53.154Z,16.40
2023-03-25T00:54:23.754Z,16.20
2023-03-25T00:56:53.445Z,16.10
2023-03-25T00:59:22.521Z,16.90
2023-03-25T01:01:53.455Z,16.30
2023-03-25T01:04:22.119Z,15.90
2023-03-25T01:06:52.137Z,15.50
2023-03-25T01:09:21.055Z,16.50
2023-03-25T01:11:52.190Z,16.20
2023-03-25T01:14:21.391Z,16.00
2023-03-25T01:16:50.306Z,16.20
2023-03-25T01:21:51.102Z,16.00
2023-03-25T01:24:19.353Z,16.30
2023-03-25T01:26:47.560Z,16.90
2023-03-25T01:29:18.104Z,15.10
2023-03-25T01:31:46.193Z,14.60
2023-03-25T01:34:15.626Z,15.00
2023-03-25T01:36:46.899Z,16.10
2023-03-25T01:39:18.845Z,15.20
2023-03-25T01:41:50.675Z,15.40
2023-03-25T01:44:19.331Z,16.70
2023-03-25T01:46:50.722Z,15.40
2023-03-25T01:49:28.779Z,15.50
2023-03-25T01:52:04.010Z,15.80
2023-03-25T01:54:32.815Z,16.30
2023-03-25T01:57:00.979Z,16.90
2023-03-25T01:59:29.405Z,17.30
2023-03-25T02:01:58.379Z,17.00
2023-03-25T02:04:59.288Z,17.40
2023-03-25T02:07:31.058Z,17.20
2023-03-25T02:09:59.703Z,18.00
2023-03-25T02:12:28.830Z,17.10
2023-03-25T02:15:02.520Z,17.20
2023-03-25T02:17:59.811Z,16.10
2023-03-25T02:20:44.856Z,17.50
2023-03-25T02:23:15.940Z,15.80
2023-03-25T02:26:05.890Z,17.70
2023-03-25T02:29:07.402Z,16.70
2023-03-25T02:32:07.853Z,15.30
2023-03-25T02:35:01.129Z,15.40
2023-03-25T02:37:52.555Z,15.90
2023-03-25T02:40:25.738Z,15.30
2023-03-25T02:42:56.980Z,14.80
2023-03-25T02:45:27.308Z,16.00
2023-03-25T02:48:00.078Z,16.30
2023-03-25T02:50:40.515Z,16.10
2023-03-25T02:53:11.329Z,16.60
2023-03-25T02:55:42.394Z,16.50
2023-03-25T02:58:13.499Z,18.00
2023-03-25T03:00:42.157Z,16.00
2023-03-25T03:03:12.267Z,15.80
2023-03-25T03:05:44.049Z,17.30
2023-03-25T03:08:49.343Z,16.20
2023-03-25T03:11:21.969Z,15.00
2023-03-25T03:14:09.167Z,17.20
2023-03-25T03:17:25.985Z,16.90
2023-03-25T03:20:08.619Z,17.40
2023-03-25T03:22:52.682Z,16.40
2023-03-25T03:25:36.822Z,16.80
2023-03-25T03:28:45.575Z,16.30
2023-03-25T03:31:48.836Z,16.00
2023-03-25T03:34:54.775Z,17.40
2023-03-25T03:37:26.588Z,16.90
2023-03-25T03:39:56.160Z,17.00
2023-03-25T03:42:29.030Z,16.90
2023-03-25T03:45:00.700Z,18.20
2023-03-25T03:47:32.041Z,16.60
2023-03-25T03:50:09.723Z,17.60
2023-03-25T03:52:45.702Z,19.90
2023-03-25T03:55:29.344Z,17.50
2023-03-25T04:01:27.320Z,18.80
2023-03-25T04:04:00.423Z,21.80
2023-03-25T04:06:50.024Z,21.30
2023-03-25T04:09:41.237Z,21.20
2023-03-25T04:12:20.778Z,19.30
2023-03-25T04:14:49.505Z,18.40
2023-03-25T04:17:16.962Z,20.90
2023-03-25T04:19:48.533Z,18.70
2023-03-25T04:22:19.086Z,21.80
2023-03-25T04:24:49.181Z,21.30
2023-03-25T04:27:16.286Z,19.70
2023-03-25T04:29:47.171Z,21.10
2023-03-25T04:32:16.376Z,20.70
2023-03-25T04:34:43.403Z,20.20
2023-03-25T04:37:10.905Z,20.60
2023-03-25T04:39:39.161Z,19.70
2023-03-25T04:42:06.194Z,21.00
2023-03-25T04:44:33.010Z,19.80
2023-03-25T04:47:00.218Z,19.10
2023-03-25T04:49:27.712Z,20.60
2023-03-25T04:51:55.094Z,19.30
2023-03-25T04:54:23.065Z,19.10
2023-03-25T04:56:50.570Z,19.10
2023-03-25T04:59:23.654Z,18.60
2023-03-25T05:01:52.194Z,21.30
2023-03-25T05:04:19.866Z,20.20
2023-03-25T05:06:52.434Z,20.40
2023-03-25T05:09:21.459Z,20.30
2023-03-25T05:11:48.740Z,19.70
2023-03-25T05:14:19.926Z,20.20
2023-03-25T05:16:47.461Z,19.00
2023-03-25T05:19:14.659Z,19.60
2023-03-25T05:21:42.112Z,22.90
2023-03-25T05:24:10.155Z,23.30
2023-03-25T05:26:39.159Z,21.40
2023-03-25T05:29:13.371Z,25.00
2023-03-25T05:31:41.088Z,25.20
2023-03-25T05:34:08.685Z,23.40
2023-03-25T05:36:35.465Z,23.60
2023-03-25T05:39:04.662Z,25.50
2023-03-25T05:41:32.453Z,22.50
2023-03-25T05:46:41.856Z,19.90
2023-03-25T05:49:08.431Z,21.50
2023-03-25T05:51:44.441Z,19.20
2023-03-25T05:54:11.949Z,17.40
2023-03-25T05:56:39.188Z,18.90
2023-03-25T05:59:07.555Z,17.40
2023-03-25T06:01:37.246Z,17.90
2023-03-25T06:04:09.314Z,19.20
2023-03-25T06:06:36.273Z,19.20
2023-03-25T06:09:05.667Z,18.20
2023-03-25T06:11:37.421Z,18.60
2023-03-25T06:14:04.757Z,18.60
2023-03-25T06:16:36.238Z,18.30
2023-03-25T06:19:03.075Z,18.40
2023-03-25T06:21:32.931Z,18.70
2023-03-25T06:24:07.989Z,18.20
2023-03-25T06:26:35.434Z,18.70
2023-03-25T06:29:04.665Z,18.40
2023-03-25T06:31:32.879Z,20.20
2023-03-25T06:34:00.743Z,17.60
2023-03-25T06:36:31.858Z,19.30
2023-03-25T06:38:58.812Z,17.90
2023-03-25T06:41:35.168Z,19.50
2023-03-25T06:44:24.711Z,19.20
2023-03-25T06:46:51.941Z,18.10
2023-03-25T06:49:39.280Z,19.20
2023-03-25T06:52:05.970Z,19.90
2023-03-25T06:54:33.291Z,19.80
2023-03-25T06:56:59.950Z,18.60
2023-03-25T06:59:31.886Z,19.10
2023-03-25T07:01:59.103Z,19.90
2023-03-25T07:04:26.097Z,20.20
2023-03-25T07:06:57.760Z,22.20
2023-03-25T07:09:24.852Z,19.80
2023-03-25T07:11:51.652Z,20.90
2023-03-25T07:14:20.440Z,21.50
2023-03-25T07:16:47.154Z,21.50
2023-03-25T07:19:17.716Z,22.30
2023-03-25T07:21:47.809Z,20.30
2023-03-25T07:24:15.373Z,19.70
2023-03-25T07:26:41.908Z,19.00
2023-03-25T07:29:11.545Z,23.00
2023-03-25T07:31:41.299Z,21.90
2023-03-25T07:34:08.026Z,19.20
2023-03-25T07:36:34.789Z,20.20
2023-03-25T07:39:01.665Z,20.70
2023-03-25T07:41:28.617Z,22.10
2023-03-25T07:44:06.267Z,24.90
2023-03-25T07:46:35.967Z,23.70
2023-03-25T07:49:03.560Z,26.30
2023-03-25T07:51:32.442Z,20.10
2023-03-25T07:54:05.597Z,24.90
2023-03-25T07:56:34.207Z,21.60
2023-03-25T07:59:01.826Z,18.80
2023-03-25T08:01:28.745Z,20.70
2023-03-25T08:03:55.496Z,19.40
2023-03-25T08:06:27.761Z,17.90
2023-03-25T08:08:55.280Z,18.40
2023-03-25T08:11:21.891Z,18.50
2023-03-25T08:13:49.307Z,18.10
2023-03-25T08:16:16.005Z,18.10
2023-03-25T08:18:44.365Z,17.50
2023-03-25T08:21:12.248Z,18.80
2023-03-25T08:23:40.501Z,18.20
2023-03-25T08:26:07.454Z,16.70
2023-03-25T08:28:34.108Z,18.70
2023-03-25T08:31:01.919Z,17.30
2023-03-25T08:33:42.328Z,19.50
2023-03-25T08:36:13.189Z,19.00
2023-03-25T08:41:07.840Z,18.90
2023-03-25T08:43:35.274Z,18.30
2023-03-25T08:46:06.107Z,19.30
2023-03-25T08:48:37.209Z,19.00
2023-03-25T08:51:06.670Z,18.00
2023-03-25T08:53:33.255Z,17.50
2023-03-25T08:56:00.047Z,18.10
2023-03-25T08:58:27.325Z,19.00
2023-03-25T09:00:55.091Z,17.90
2023-03-25T09:03:22.310Z,19.30
2023-03-25T09:05:49.455Z,20.10
2023-03-25T09:08:17.799Z,20.10
2023-03-25T09:10:44.534Z,18.30
2023-03-25T09:13:14.091Z,19.20
2023-03-25T09:15:40.954Z,17.10
2023-03-25T09:18:08.382Z,17.60
2023-03-25T09:20:36.879Z,19.70
2023-03-25T09:23:03.798Z,17.00
2023-03-25T09:25:37.025Z,18.80
2023-03-25T09:28:04.069Z,18.40
2023-03-25T09:30:30.809Z,18.20
2023-03-25T09:32:58.104Z,18.20
2023-03-25T09:35:25.617Z,17.70
2023-03-25T09:37:54.758Z,19.30
2023-03-25T09:40:21.914Z,19.10
2023-03-25T09:42:58.115Z,18.80
2023-03-25T09:45:44.038Z,20.40
2023-03-25T09:48:37.305Z,19.80
2023-03-25T09:51:15.715Z,18.70
2023-03-25T09:53:47.908Z,19.10
2023-03-25T09:56:22.627Z,20.50
2023-03-25T09:58:56.963Z,18.70
2023-03-25T10:01:37.889Z,19.50
2023-03-25T10:06:57.640Z,20.30
2023-03-25T10:09:45.825Z,21.00
2023-03-25T10:12:51.913Z,21.90
2023-03-25T10:15:43.663Z,22.60
2023-03-25T10:18:24.151Z,21.20
2023-03-25T10:21:06.669Z,20.90
2023-03-25T10:23:47.879Z,18.60
2023-03-25T10:26:19.855Z,21.90
2023-03-25T10:28:51.872Z,21.60
2023-03-25T10:31:24.346Z,20.10
2023-03-25T10:34:03.913Z,24.50
2023-03-25T10:36:35.978Z,22.90
2023-03-25T10:39:04.438Z,22.30
2023-03-25T10:41:38.715Z,22.50
2023-03-25T10:44:09.244Z,20.40
2023-03-25T10:49:26.059Z,21.60
2023-03-25T10:51:56.791Z,23.70
2023-03-25T10:54:34.157Z,22.10
2023-03-25T10:57:06.574Z,19.60
2023-03-25T10:59:37.116Z,20.00
2023-03-25T11:02:18.204Z,19.50
2023-03-25T11:04:51.087Z,22.10
2023-03-25T11:07:19.633Z,22.00
2023-03-25T11:09:46.835Z,24.60
2023-03-25T11:12:13.834Z,23.60
2023-03-25T11:14:40.612Z,20.50
2023-03-25T11:17:14.772Z,21.40
2023-03-25T11:19:55.424Z,22.30
2023-03-25T11:22:24.871Z,21.60
2023-03-25T11:25:01.185Z,20.00
2023-03-25T11:27:29.808Z,19.30
2023-03-25T11:30:03.108Z,22.10
2023-03-25T11:32:36.752Z,22.10
2023-03-25T11:35:18.886Z,20.10
2023-03-25T11:37:48.420Z,22.30
2023-03-25T11:40:16.840Z,22.50
2023-03-25T11:42:55.360Z,21.10
2023-03-25T11:45:38.464Z,25.10
2023-03-25T11:48:15.214Z,24.20
2023-03-25T11:50:53.494Z,23.60
2023-03-25T11:53:26.786Z,22.90
2023-03-25T11:55:55.327Z,21.70
2023-03-25T11:58:26.734Z,20.00
2023-03-25T12:01:05.426Z,22.50
2023-03-25T12:03:34.270Z,20.80
2023-03-25T12:06:04.422Z,24.70
2023-03-25T12:11:21.383Z,22.70
2023-03-25T12:14:03.435Z,23.80
2023-03-25T12:17:08.264Z,23.70
2023-03-25T12:20:00.526Z,22.50
2023-03-25T12:22:45.992Z,23.00
2023-03-25T12:25:26.442Z,25.60
2023-03-25T12:28:05.983Z,24.40
2023-03-25T12:30:39.444Z,22.80
2023-03-25T12:33:45.853Z,23.20
2023-03-25T12:36:28.032Z,22.30
2023-03-25T12:39:17.783Z,22.90
2023-03-25T12:42:07.696Z,23.00
2023-03-25T12:44:37.273Z,22.30
2023-03-25T12:47:19.392Z,20.80
2023-03-25T12:50:13.313Z,23.00
2023-03-25T12:52:47.821Z,22.60
2023-03-25T12:55:20.480Z,23.20
2023-03-25T12:57:56.279Z,24.10
2023-03-25T13:00:39.110Z,22.60
2023-03-25T13:03:24.441Z,22.70
2023-03-25T13:06:14.632Z,25.40
2023-03-25T13:08:53.348Z,27.70
2023-03-25T13:11:27.882Z,25.70
2023-03-25T13:13:57.888Z,28.60
2023-03-25T13:16:27.053Z,30.30
2023-03-25T13:19:02.374Z,25.90
2023-03-25T13:21:34.882Z,26.20
2023-03-25T13:24:05.101Z,26.20
2023-03-25T13:26:32.050Z,25.90
2023-03-25T13:29:13.684Z,28.70
2023-03-25T13:31:41.919Z,24.70
2023-03-25T13:34:47.987Z,23.80
2023-03-25T13:37:23.983Z,27.90
2023-03-25T13:39:57.426Z,28.50
2023-03-25T13:42:33.149Z,25.00
2023-03-25T13:45:00.322Z,27.30
2023-03-25T13:47:33.299Z,27.20
2023-03-25T13:50:08.007Z,28.70
2023-03-25T13:52:38.856Z,41.50
2023-03-25T13:55:15.085Z,34.70
2023-03-25T13:58:02.846Z,35.70
2023-03-25T14:00:46.764Z,34.30
2023-03-25T14:03:40.849Z,35.60
2023-03-25T14:06:19.911Z,32.40
2023-03-25T14:08:52.816Z,29.70
2023-03-25T14:11:39.920Z,26.40
2023-03-25T14:14:09.938Z,28.90
2023-03-25T14:16:59.520Z,39.60
2023-03-25T14:19:37.374Z,28.20
2023-03-25T14:22:27.827Z,59.40
2023-03-25T14:24:55.981Z,145.80
2023-03-25T14:27:27.205Z,67.00
2023-03-25T14:29:59.720Z,80.40
2023-03-25T14:32:32.778Z,63.90
2023-03-25T14:35:31.992Z,41.80
2023-03-25T14:38:08.432Z,41.20
2023-03-25T14:40:47.404Z,47.50
2023-03-25T14:43:32.448Z,31.70
2023-03-25T14:46:10.976Z,33.50
2023-03-25T14:49:05.176Z,35.90
2023-03-25T14:51:34.143Z,83.70
2023-03-25T14:54:21.128Z,146.40
2023-03-25T14:57:03.614Z,175.30
2023-03-25T14:59:31.871Z,122.10
2023-03-25T15:02:04.432Z,75.80
2023-03-25T15:04:37.234Z,55.20
2023-03-25T15:07:09.234Z,42.90
2023-03-25T15:09:53.022Z,62.80
2023-03-25T15:12:23.528Z,127.80
2023-03-25T15:14:55.628Z,43.60
2023-03-25T15:17:43.977Z,48.00
2023-03-25T15:20:22.741Z,41.50
2023-03-25T15:23:35.689Z,37.60
2023-03-25T15:26:03.025Z,37.20
2023-03-25T15:28:44.952Z,35.90
2023-03-25T15:31:31.335Z,38.80
2023-03-25T15:34:03.464Z,38.40
2023-03-25T15:36:30.616Z,34.60
2023-03-25T15:39:18.666Z,33.90
2023-03-25T15:41:55.654Z,32.60
2023-03-25T15:44:42.668Z,32.60
2023-03-25T15:47:32.430Z,33.50
2023-03-25T15:50:29.984Z,31.30
2023-03-25T15:53:02.922Z,54.20
2023-03-25T15:55:39.232Z,82.50
2023-03-25T15:58:25.624Z,73.10
2023-03-25T16:00:55.528Z,62.40
2023-03-25T16:03:26.493Z,46.00
2023-03-25T16:05:58.953Z,44.50
2023-03-25T16:08:40.461Z,39.80
2023-03-25T16:11:19.970Z,39.10
2023-03-25T16:13:47.152Z,41.30
2023-03-25T16:17:33.164Z,44.40
2023-03-25T16:20:01.430Z,49.00
2023-03-25T16:22:38.918Z,49.20
2023-03-25T16:25:12.803Z,56.00
2023-03-25T16:27:45.877Z,54.00
2023-03-25T16:30:26.011Z,48.10
2023-03-25T16:33:10.807Z,50.80
2023-03-25T16:36:04.292Z,49.50
2023-03-25T16:38:32.550Z,48.40
2023-03-25T16:41:07.593Z,53.90
2023-03-25T16:43:35.786Z,52.70
2023-03-25T16:46:04.640Z,55.00
2023-03-25T16:48:34.766Z,60.20
2023-03-25T16:51:23.555Z,61.00
2023-03-25T16:53:56.282Z,51.60
2023-03-25T16:56:31.535Z,67.70
2023-03-25T16:59:06.350Z,104.40
2023-03-25T17:01:39.584Z,69.90
2023-03-25T17:04:13.786Z,52.60
2023-03-25T17:06:53.336Z,65.20
2023-03-25T17:09:25.325Z,69.30
2023-03-25T17:11:56.833Z,70.40
2023-03-25T17:14:33.823Z,70.10
2023-03-25T17:17:12.474Z,75.80
2023-03-25T17:19:47.871Z,80.70
2023-03-25T17:22:45.061Z,80.30
2023-03-25T17:25:27.447Z,74.60
2023-03-25T17:27:56.936Z,91.20
2023-03-25T17:30:28.256Z,75.80
2023-03-25T17:33:19.449Z,74.10
2023-03-25T17:35:54.457Z,57.50
2023-03-25T17:38:34.027Z,45.80
2023-03-25T17:41:07.103Z,59.00
2023-03-25T17:43:37.955Z,74.70
2023-03-25T17:46:06.988Z,54.40
2023-03-25T17:48:36.845Z,51.00
2023-03-25T17:51:05.749Z,50.50
2023-03-25T17:53:35.349Z,91.20
2023-03-25T17:56:06.511Z,58.90
2023-03-25T17:58:37.130Z,46.80
2023-03-25T18:01:05.747Z,57.10
2023-03-25T18:03:35.961Z,48.80
2023-03-25T18:06:05.346Z,50.20
2023-03-25T18:08:34.994Z,67.00
2023-03-25T18:11:03.336Z,61.00
2023-03-25T18:13:32.233Z,78.80
2023-03-25T18:16:03.419Z,79.60
2023-03-25T18:18:32.144Z,76.50
2023-03-25T18:21:03.728Z,78.20
2023-03-25T18:23:33.431Z,76.30
2023-03-25T18:26:01.786Z,73.10
2023-03-25T18:28:34.578Z,75.20
2023-03-25T18:31:03.600Z,68.80
2023-03-25T18:33:34.696Z,62.40
2023-03-25T18:36:03.282Z,71.80
2023-03-25T18:38:31.650Z,57.60
2023-03-25T18:41:00.806Z,86.10
2023-03-25T18:43:30.540Z,88.70
2023-03-25T18:45:59.245Z,84.80
2023-03-25T18:48:28.525Z,72.00
2023-03-25T18:50:58.171Z,65.20
2023-03-25T18:53:28.070Z,112.10
2023-03-25T18:55:59.989Z,84.50
2023-03-25T18:58:31.389Z,75.30
2023-03-25T19:01:00.707Z,70.60
2023-03-25T19:03:38.967Z,69.10
2023-03-25T19:06:13.409Z,65.30
2023-03-25T19:08:43.699Z,62.10
2023-03-25T19:11:21.174Z,54.40
2023-03-25T19:13:53.407Z,57.60
2023-03-25T19:16:23.374Z,59.80
2023-03-25T19:18:52.216Z,52.30
2023-03-25T19:21:26.344Z,62.00
2023-03-25T19:23:54.640Z,59.70
2023-03-25T19:26:22.631Z,57.50
2023-03-25T19:28:52.644Z,80.40
2023-03-25T19:31:21.252Z,65.40
2023-03-25T19:33:59.086Z,76.10
2023-03-25T19:36:27.474Z,83.50
2023-03-25T19:39:05.463Z,83.10
2023-03-25T19:41:42.192Z,78.90
2023-03-25T19:44:10.886Z,79.70
2023-03-25T19:46:39.555Z,78.70
2023-03-25T19:49:07.937Z,55.80
2023-03-25T19:51:36.127Z,48.60
2023-03-25T19:54:05.153Z,48.70
2023-03-25T19:56:33.260Z,45.40
2023-03-25T19:59:01.349Z,45.60
2023-03-25T20:01:31.082Z,40.50
2023-03-25T20:04:00.948Z,36.90
2023-03-25T20:06:30.715Z,34.50
2023-03-25T20:08:59.012Z,32.60
2023-03-25T20:11:27.026Z,31.90
2023-03-25T20:14:06.477Z,25.40
2023-03-25T20:16:36.807Z,24.00
2023-03-25T20:19:04.908Z,23.00
2023-03-25T20:21:37.107Z,20.50
2023-03-25T20:24:06.361Z,18.00
2023-03-25T20:26:34.403Z,18.00
2023-03-25T20:29:03.119Z,16.10
2023-03-25T20:31:33.337Z,18.10
2023-03-25T20:34:01.521Z,14.30
2023-03-25T20:36:30.871Z,13.00
2023-03-25T20:39:00.863Z,12.20
2023-03-25T20:41:29.267Z,11.40
2023-03-25T20:43:57.371Z,11.80
2023-03-25T20:46:28.563Z,11.10
2023-03-25T20:48:57.954Z,10.70
2023-03-25T20:51:26.722Z,11.80
2023-03-25T20:53:57.030Z,10.60
2023-03-25T20:56:25.416Z,11.10
2023-03-25T20:58:55.124Z,10.20
2023-03-25T21:01:23.653Z,9.30
2023-03-25T21:03:53.353Z,10.10
2023-03-25T21:06:25.640Z,9.70
2023-03-25T21:08:58.324Z,9.10
2023-03-25T21:11:29.426Z,8.60
2023-03-25T21:13:57.497Z,10.40
2023-03-25T21:16:26.517Z,9.80
2023-03-25T21:18:56.714Z,10.90
2023-03-25T21:21:25.900Z,10.10
2023-03-25T21:23:53.877Z,10.70
2023-03-25T21:26:26.642Z,10.30
2023-03-25T21:28:55.012Z,9.30
2023-03-25T21:31:23.223Z,10.80
2023-03-25T21:33:52.993Z,9.30
2023-03-25T21:36:23.347Z,9.90
2023-03-25T21:38:55.721Z,10.90
2023-03-25T21:41:24.939Z,10.30
2023-03-25T21:43:53.516Z,11.60
2023-03-25T21:46:27.660Z,11.80
2023-03-25T21:48:58.569Z,10.60
2023-03-25T21:51:30.486Z,11.60
2023-03-25T21:54:00.455Z,10.70
2023-03-25T21:56:31.688Z,11.30
2023-03-25T21:59:02.052Z,11.80
2023-03-25T22:01:32.654Z,10.90
2023-03-25T22:04:02.536Z,11.20
2023-03-25T22:06:32.005Z,11.90
2023-03-25T22:09:05.601Z,12.00
2023-03-25T22:11:35.721Z,11.90
2023-03-25T22:14:05.489Z,11.40
2023-03-25T22:16:34.858Z,11.10
2023-03-25T22:19:03.359Z,11.70
2023-03-25T22:21:37.175Z,11.10
2023-03-25T22:24:09.130Z,11.20
2023-03-25T22:26:43.109Z,10.70
2023-03-25T22:29:13.632Z,9.70
2023-03-25T22:31:45.660Z,11.70
2023-03-25T22:34:15.293Z,10.10
2023-03-25T22:36:49.826Z,11.40
2023-03-25T22:39:19.709Z,11.30
2023-03-25T22:41:48.856Z,11.80
2023-03-25T22:44:18.239Z,10.60
2023-03-25T22:46:51.585Z,12.70
2023-03-25T22:49:20.712Z,10.40
2023-03-25T22:51:51.463Z,11.60
2023-03-25T22:54:19.564Z,12.00
2023-03-25T22:56:47.935Z,11.60
2023-03-25T22:59:16.944Z,12.30
2023-03-25T23:01:49.466Z,11.80
2023-03-25T23:04:18.210Z,12.50
2023-03-25T23:06:53.872Z,12.80
2023-03-25T23:09:45.251Z,12.30
2023-03-25T23:12:31.464Z,12.60
2023-03-25T23:17:35.211Z,11.70
2023-03-25T23:20:07.152Z,13.10
2023-03-25T23:22:35.662Z,13.90
2023-03-25T23:25:05.175Z,13.60
2023-03-25T23:27:34.052Z,15.00
2023-03-25T23:30:05.134Z,13.40
2023-03-25T23:32:34.317Z,14.10
2023-03-25T23:35:03.248Z,13.70
2023-03-25T23:37:34.022Z,13.60
2023-03-25T23:40:02.512Z,14.50
2023-03-25T23:42:34.914Z,13.60
2023-03-25T23:45:05.012Z,15.40
2023-03-25T23:47:33.152Z,13.50
2023-03-25T23:50:02.123Z,15.10
2023-03-25T23:52:30.994Z,14.80
2023-03-25T23:54:59.321Z,14.60
2023-03-25T23:57:27.564Z,14.90
2023-03-25T23:59:55.838Z,15.00
